Time;durP1;ratioP1;P1;durP2;ratioP2;P2;SDS_P1;SDS_P2;PMS_P1;PMS_P2;Temp;Humidity;BMP_temperature;BMP_pressure;BME280_temperature;BME280_humidity;BME280_pressure;Samples;Min_cycle;Max_cycle;Signal;HPM_P1;HPM_P2
2023/06/11 00:02:01;;;;;;;6.68;5.90;;;24.20;99.90;;;;;;5013357;28;20331;-58
2023/06/11 00:04:30;;;;;;;9.37;6.27;;;24.20;99.90;;;;;;4993951;28;20318;-56
2023/06/11 00:06:57;;;;;;;8.45;5.85;;;24.20;99.90;;;;;;4997844;28;20205;-56
2023/06/11 00:09:24;;;;;;;7.20;6.10;;;24.10;99.90;;;;;;4997591;28;20233;-55
2023/06/11 00:11:53;;;;;;;6.77;6.17;;;24.10;99.90;;;;;;4996393;28;20208;-56
2023/06/11 00:14:22;;;;;;;7.18;6.47;;;24.00;99.90;;;;;;5014263;28;20209;-56
2023/06/11 00:16:50;;;;;;;6.35;5.80;;;24.00;99.90;;;;;;4994052;28;20213;-57
2023/06/11 00:19:19;;;;;;;7.82;6.40;;;23.90;99.90;;;;;;4994375;28;20622;-57
2023/06/11 00:21:48;;;;;;;9.75;6.60;;;24.00;99.90;;;;;;5001539;28;20848;-57
2023/06/11 00:24:16;;;;;;;6.13;5.53;;;23.90;99.90;;;;;;4990407;28;20201;-56
2023/06/11 00:26:44;;;;;;;6.77;6.17;;;23.90;99.90;;;;;;4992086;28;20764;-57
2023/06/11 00:29:11;;;;;;;7.43;5.97;;;23.90;99.90;;;;;;4995386;28;20204;-56
2023/06/11 00:31:38;;;;;;;7.13;6.50;;;24.00;99.90;;;;;;4995156;28;20216;-56
2023/06/11 00:34:05;;;;;;;7.10;6.40;;;24.00;99.90;;;;;;4998084;28;20359;-57
2023/06/11 00:36:33;;;;;;;7.40;6.27;;;23.80;99.90;;;;;;5004487;28;20219;-57
2023/06/11 00:39:01;;;;;;;8.40;6.40;;;23.80;99.90;;;;;;4998077;28;21925;-56
2023/06/11 00:41:30;;;;;;;7.47;6.70;;;23.70;99.90;;;;;;4997204;28;20679;-57
2023/06/11 00:43:58;;;;;;;8.27;6.23;;;23.70;99.90;;;;;;4993890;28;20789;-58
2023/06/11 00:46:25;;;;;;;7.73;6.97;;;23.60;99.90;;;;;;4994826;28;20208;-58
2023/06/11 00:48:53;;;;;;;7.27;6.40;;;23.70;99.90;;;;;;4991045;28;22458;-59
2023/06/11 00:51:22;;;;;;;7.33;6.63;;;23.70;99.90;;;;;;5014680;28;21925;-56
2023/06/11 00:53:51;;;;;;;7.83;7.03;;;23.70;99.90;;;;;;4991230;28;20225;-56
2023/06/11 00:56:19;;;;;;;8.77;7.40;;;23.70;99.90;;;;;;4993645;28;20208;-56
2023/06/11 00:58:48;;;;;;;9.80;6.90;;;23.50;99.90;;;;;;4991543;28;20215;-57
2023/06/11 01:01:26;;;;;;;7.60;6.47;;;23.60;99.90;;;;;;4992989;28;20544;-56
2023/06/11 01:03:57;;;;;;;8.80;7.00;;;23.50;99.90;;;;;;4998698;28;20235;-56
2023/06/11 01:06:28;;;;;;;7.17;6.47;;;23.40;99.90;;;;;;4995616;28;20209;-56
2023/06/11 01:08:58;;;;;;;6.97;6.40;;;23.40;99.90;;;;;;4993759;28;20243;-60
2023/06/11 01:11:27;;;;;;;7.53;6.73;;;23.50;99.90;;;;;;4996165;28;21971;-56
2023/06/11 01:13:54;;;;;;;7.33;6.27;;;23.40;99.90;;;;;;4995231;28;23006;-57
2023/06/11 01:16:27;;;;;;;8.50;7.30;;;23.30;99.90;;;;;;4991317;28;20665;-56
2023/06/11 01:19:03;;;;;;;9.00;7.17;;;23.30;99.90;;;;;;4995750;28;20209;-56
2023/06/11 01:21:40;;;;;;;7.97;7.17;;;23.30;99.90;;;;;;4992303;28;20269;-56
2023/06/11 01:24:18;;;;;;;9.57;7.47;;;23.20;99.90;;;;;;4995375;28;20223;-59
2023/06/11 01:27:26;;;;;;;9.83;7.77;;;23.30;99.90;;;;;;4994178;28;20219;-56
2023/06/11 01:29:56;;;;;;;9.03;7.20;;;23.20;99.90;;;;;;5006429;28;20696;-59
2023/06/11 01:32:27;;;;;;;8.97;7.00;;;23.20;99.90;;;;;;4996590;28;20295;-56
2023/06/11 01:35:04;;;;;;;7.67;6.97;;;23.20;99.90;;;;;;4993332;28;21353;-64
2023/06/11 01:37:32;;;;;;;8.50;7.63;;;23.10;99.90;;;;;;4994876;28;20210;-56
2023/06/11 01:39:59;;;;;;;12.33;7.83;;;23.10;99.90;;;;;;4998615;28;21302;-57
2023/06/11 01:42:26;;;;;;;9.50;8.10;;;23.00;99.90;;;;;;4997974;28;20822;-56
2023/06/11 01:44:53;;;;;;;8.60;7.70;;;22.90;99.90;;;;;;5003474;28;20686;-56
2023/06/11 01:47:21;;;;;;;8.23;7.47;;;23.00;99.90;;;;;;4992936;28;20566;-57
2023/06/11 01:49:48;;;;;;;8.57;7.77;;;22.90;99.90;;;;;;4989996;28;21053;-62
2023/06/11 01:52:16;;;;;;;7.83;6.87;;;22.80;99.90;;;;;;4993105;28;21048;-60
2023/06/11 01:54:43;;;;;;;9.17;7.33;;;22.80;99.90;;;;;;5013683;28;20207;-57
2023/06/11 01:57:10;;;;;;;10.70;7.77;;;22.80;99.90;;;;;;4993152;28;22457;-63
2023/06/11 01:59:37;;;;;;;9.03;7.80;;;22.70;99.90;;;;;;4998902;28;20228;-56
2023/06/11 02:02:04;;;;;;;8.53;7.73;;;22.80;99.90;;;;;;4986327;28;20996;-61
2023/06/11 02:04:31;;;;;;;9.23;8.37;;;22.70;99.90;;;;;;4990291;28;20294;-57
2023/06/11 02:06:59;;;;;;;10.07;8.30;;;22.60;99.90;;;;;;4989568;28;20203;-57
2023/06/11 02:09:26;;;;;;;9.20;8.40;;;22.70;99.90;;;;;;4989239;28;20239;-56
2023/06/11 02:11:54;;;;;;;9.67;8.13;;;22.60;99.90;;;;;;4995627;28;20788;-58
2023/06/11 02:14:56;;;;;;;8.80;8.00;;;22.50;99.90;;;;;;4991969;28;20670;-57
2023/06/11 02:17:18;;;;;;;13.03;7.87;;;22.60;99.90;;;;;;4991955;28;20235;-57
2023/06/11 02:19:46;;;;;;;8.83;8.00;;;22.60;99.90;;;;;;4990865;28;20217;-60
2023/06/11 02:22:13;;;;;;;10.27;7.93;;;22.50;99.90;;;;;;4991866;28;20213;-57
2023/06/11 02:24:40;;;;;;;8.57;7.77;;;22.50;99.90;;;;;;4989612;28;20658;-57
2023/06/11 02:27:08;;;;;;;9.00;8.10;;;22.40;99.90;;;;;;5003419;28;20208;-57
2023/06/11 02:29:35;;;;;;;9.17;8.13;;;22.40;99.90;;;;;;4994173;28;20204;-59
2023/06/11 02:32:04;;;;;;;9.27;8.37;;;22.40;99.90;;;;;;4985017;28;20211;-59
2023/06/11 02:34:33;;;;;;;8.83;8.00;;;22.40;99.90;;;;;;5006281;28;20925;-62
2023/06/11 02:37:00;;;;;;;9.27;8.13;;;22.40;99.90;;;;;;4995062;28;20213;-61
2023/06/11 02:39:27;;;;;;;12.37;8.97;;;22.40;99.90;;;;;;5010331;28;20203;-57
2023/06/11 02:41:54;;;;;;;10.33;7.87;;;22.30;99.90;;;;;;5003273;28;20213;-56
2023/06/11 02:44:23;;;;;;;9.63;8.07;;;22.30;99.90;;;;;;4996157;28;20224;-57
2023/06/11 02:46:56;;;;;;;11.87;8.23;;;22.20;99.90;;;;;;4997473;28;20286;-56
2023/06/11 02:49:26;;;;;;;9.00;8.07;;;22.20;99.90;;;;;;4994700;28;20207;-57
2023/06/11 02:51:53;;;;;;;8.70;7.90;;;22.20;99.90;;;;;;4998638;28;20208;-57
2023/06/11 02:54:20;;;;;;;9.20;8.30;;;22.20;99.90;;;;;;5000693;28;20222;-57
2023/06/11 02:56:46;;;;;;;8.60;7.80;;;22.20;99.90;;;;;;5002593;28;20218;-56
2023/06/11 02:59:13;;;;;;;9.17;8.33;;;22.20;99.90;;;;;;5000928;28;20210;-58
2023/06/11 03:01:41;;;;;;;9.30;8.40;;;22.10;99.90;;;;;;4999322;28;20657;-58
2023/06/11 03:04:08;;;;;;;9.10;8.23;;;22.10;99.90;;;;;;4996458;28;20220;-60
2023/06/11 03:06:38;;;;;;;8.73;7.90;;;22.10;99.90;;;;;;4997241;28;20212;-57
2023/06/11 03:09:05;;;;;;;9.30;8.40;;;22.10;99.90;;;;;;5002854;28;20672;-56
2023/06/11 03:11:32;;;;;;;9.80;8.40;;;22.20;99.90;;;;;;4992762;28;20635;-61
2023/06/11 03:13:59;;;;;;;9.90;8.90;;;22.10;99.90;;;;;;4979687;28;20995;-57
2023/06/11 03:16:26;;;;;;;11.30;8.20;;;22.10;99.90;;;;;;4999664;28;20356;-57
2023/06/11 03:18:53;;;;;;;11.33;9.10;;;22.10;99.90;;;;;;4995764;28;20238;-57
2023/06/11 03:21:20;;;;;;;11.53;8.63;;;22.10;99.90;;;;;;4998053;28;20202;-57
2023/06/11 03:23:47;;;;;;;9.03;8.13;;;22.00;99.90;;;;;;5000769;28;20708;-56
2023/06/11 03:26:14;;;;;;;12.00;8.63;;;22.00;99.90;;;;;;4978966;28;21065;-60
2023/06/11 03:28:41;;;;;;;10.20;9.20;;;22.00;99.90;;;;;;4973389;28;20204;-58
2023/06/11 03:31:11;;;;;;;10.20;8.83;;;22.00;99.90;;;;;;4994672;28;20217;-59
2023/06/11 03:33:38;;;;;;;9.27;8.27;;;22.00;99.90;;;;;;4995332;28;20315;-57
2023/06/11 03:36:05;;;;;;;9.53;8.63;;;22.00;99.90;;;;;;4976705;28;20221;-57
2023/06/11 03:38:34;;;;;;;10.03;9.03;;;21.90;99.90;;;;;;4978303;28;20220;-57
2023/06/11 03:41:01;;;;;;;13.83;10.47;;;21.80;99.90;;;;;;4994076;28;20218;-57
2023/06/11 03:43:28;;;;;;;9.63;8.83;;;21.80;99.90;;;;;;4990687;28;20225;-56
2023/06/11 03:45:58;;;;;;;10.80;9.47;;;21.70;99.90;;;;;;4991988;28;20292;-56
2023/06/11 03:48:28;;;;;;;10.50;9.60;;;21.70;99.90;;;;;;4993736;28;20205;-58
2023/06/11 03:50:55;;;;;;;12.07;10.00;;;21.70;99.90;;;;;;5012529;28;20315;-61
2023/06/11 03:53:22;;;;;;;11.20;9.97;;;21.70;99.90;;;;;;4996342;28;20218;-57
2023/06/11 03:55:49;;;;;;;10.30;9.40;;;21.70;99.90;;;;;;4992140;28;20213;-57
2023/06/11 03:58:16;;;;;;;10.93;9.87;;;21.60;99.90;;;;;;4995931;28;20201;-59
2023/06/11 04:00:43;;;;;;;15.07;10.20;;;21.60;99.90;;;;;;4994095;28;20211;-57
2023/06/11 04:03:16;;;;;;;11.03;9.87;;;21.40;99.90;;;;;;4992588;28;20223;-66
2023/06/11 04:05:46;;;;;;;11.67;9.67;;;21.40;99.90;;;;;;5003665;28;20236;-58
2023/06/11 04:08:20;;;;;;;10.73;9.73;;;21.40;99.90;;;;;;4995242;28;20236;-56
2023/06/11 04:10:50;;;;;;;10.83;9.47;;;21.50;99.90;;;;;;4996505;28;20208;-57
2023/06/11 04:13:17;;;;;;;11.33;10.17;;;21.50;99.90;;;;;;5011580;28;20220;-58
2023/06/11 04:15:48;;;;;;;10.47;9.37;;;21.50;99.90;;;;;;4997540;28;20209;-57
2023/06/11 04:18:15;;;;;;;11.03;9.40;;;21.40;99.90;;;;;;5006166;28;20214;-59
2023/06/11 04:20:42;;;;;;;12.00;10.80;;;21.50;99.90;;;;;;4999571;28;20208;-58
2023/06/11 04:23:10;;;;;;;10.93;9.80;;;21.50;99.90;;;;;;4998081;28;20228;-57
2023/06/11 04:25:39;;;;;;;15.53;11.03;;;21.60;99.90;;;;;;4995758;28;20211;-57
2023/06/11 04:28:07;;;;;;;10.87;9.77;;;21.60;99.90;;;;;;4996463;28;20295;-57
2023/06/11 04:30:36;;;;;;;14.17;11.47;;;21.60;99.90;;;;;;4997368;28;20200;-56
2023/06/11 04:33:04;;;;;;;11.27;10.17;;;21.50;99.90;;;;;;4999192;28;20452;-56
2023/06/11 04:35:34;;;;;;;12.80;11.60;;;21.50;99.90;;;;;;5003103;28;20584;-56
2023/06/11 04:38:05;;;;;;;12.03;10.87;;;21.50;99.90;;;;;;4994702;28;20259;-56
2023/06/11 04:40:33;;;;;;;12.10;10.90;;;21.50;99.90;;;;;;5000017;28;21684;-60
2023/06/11 04:43:01;;;;;;;19.27;12.63;;;21.50;99.90;;;;;;4992312;28;20246;-57
2023/06/11 04:45:33;;;;;;;11.97;10.87;;;21.40;99.90;;;;;;4993279;28;20298;-57
2023/06/11 04:48:04;;;;;;;11.23;10.13;;;21.50;99.90;;;;;;5001885;28;20205;-57
2023/06/11 04:50:31;;;;;;;15.07;11.77;;;21.60;99.90;;;;;;4997911;28;20200;-59
2023/06/11 04:53:01;;;;;;;12.07;10.97;;;21.60;99.90;;;;;;4991487;28;20681;-57
2023/06/11 04:55:32;;;;;;;12.10;10.93;;;21.60;99.90;;;;;;4997501;28;20205;-56
2023/06/11 04:57:59;;;;;;;12.60;10.93;;;21.60;99.90;;;;;;4995169;28;20233;-57
2023/06/11 05:00:26;;;;;;;12.53;11.33;;;21.70;99.90;;;;;;5010174;28;20270;-58
2023/06/11 05:02:53;;;;;;;12.97;11.73;;;21.60;99.90;;;;;;5016668;28;20203;-56
2023/06/11 05:05:20;;;;;;;13.83;12.40;;;21.70;99.90;;;;;;5021059;28;20215;-56
2023/06/11 05:07:48;;;;;;;13.40;11.93;;;21.80;99.90;;;;;;5017369;28;21081;-60
2023/06/11 05:10:17;;;;;;;12.83;11.63;;;21.90;99.90;;;;;;5020676;28;20201;-58
2023/06/11 05:12:44;;;;;;;13.10;11.90;;;22.10;99.90;;;;;;5020515;28;20196;-57
2023/06/11 05:15:12;;;;;;;12.67;11.47;;;22.10;99.90;;;;;;5022507;28;20295;-56
2023/06/11 05:17:39;;;;;;;13.30;11.97;;;22.20;99.90;;;;;;5019649;28;20292;-58
2023/06/11 05:20:07;;;;;;;14.73;12.67;;;22.10;99.90;;;;;;5027318;28;20205;-58
2023/06/11 05:22:35;;;;;;;13.73;12.23;;;22.30;99.90;;;;;;5020452;28;20214;-57
2023/06/11 05:25:02;;;;;;;13.73;12.33;;;22.30;99.90;;;;;;5021527;28;20225;-57
2023/06/11 05:27:29;;;;;;;13.17;11.87;;;22.40;99.90;;;;;;5005217;28;20618;-57
2023/06/11 05:29:57;;;;;;;14.07;12.67;;;22.50;99.90;;;;;;5023907;28;20196;-59
2023/06/11 05:32:24;;;;;;;13.53;11.97;;;22.50;99.90;;;;;;5015970;28;20199;-58
2023/06/11 05:34:52;;;;;;;12.93;11.70;;;22.40;99.90;;;;;;5021101;28;20205;-58
2023/06/11 05:37:19;;;;;;;12.10;11.00;;;22.50;99.90;;;;;;5022609;28;20295;-58
2023/06/11 05:39:48;;;;;;;12.63;11.40;;;22.70;99.90;;;;;;5018443;28;20646;-61
2023/06/11 05:42:15;;;;;;;13.43;12.03;;;22.80;99.90;;;;;;5023073;28;20238;-58
2023/06/11 05:44:42;;;;;;;13.20;11.27;;;22.60;99.90;;;;;;5022836;28;20279;-58
2023/06/11 05:47:09;;;;;;;14.30;11.47;;;22.60;99.90;;;;;;5023794;28;20566;-59
2023/06/11 05:49:36;;;;;;;12.50;11.30;;;22.70;99.90;;;;;;5019391;28;20681;-59
2023/06/11 05:52:03;;;;;;;11.57;10.20;;;22.80;99.90;;;;;;5019212;28;20298;-58
2023/06/11 05:54:36;;;;;;;12.40;11.10;;;22.80;99.90;;;;;;5020319;28;20614;-58
2023/06/11 05:57:24;;;;;;;11.17;9.93;;;22.80;99.90;;;;;;5020534;28;20208;-56
2023/06/11 05:59:52;;;;;;;11.30;10.20;;;22.90;99.90;;;;;;5015240;28;21957;-57
2023/06/11 06:02:19;;;;;;;12.33;10.00;;;22.90;99.90;;;;;;5010599;28;20212;-63
2023/06/11 06:04:48;;;;;;;11.03;9.47;;;23.00;99.90;;;;;;5019560;28;20393;-61
2023/06/11 06:07:16;;;;;;;11.63;9.90;;;23.00;99.90;;;;;;5018337;28;20204;-59
2023/06/11 06:09:43;;;;;;;10.70;9.60;;;23.00;99.90;;;;;;5018842;28;20248;-60
2023/06/11 06:12:10;;;;;;;10.97;9.87;;;23.20;99.90;;;;;;5023518;28;20193;-60
2023/06/11 06:14:37;;;;;;;11.30;8.83;;;23.10;99.90;;;;;;5023796;28;20200;-61
2023/06/11 06:17:05;;;;;;;9.93;9.03;;;23.00;99.90;;;;;;5020460;28;20718;-61
2023/06/11 06:19:32;;;;;;;11.00;9.90;;;23.10;99.90;;;;;;5025935;28;20303;-62
2023/06/11 06:21:59;;;;;;;10.10;9.00;;;23.20;99.90;;;;;;5022175;28;20199;-61
2023/06/11 06:24:26;;;;;;;11.53;9.90;;;23.40;99.90;;;;;;5027021;28;20208;-61
2023/06/11 06:26:56;;;;;;;10.90;9.80;;;23.40;99.90;;;;;;5029342;28;20231;-61
2023/06/11 06:29:24;;;;;;;10.17;9.27;;;23.40;99.90;;;;;;5030523;28;20204;-61
2023/06/11 06:31:51;;;;;;;9.87;8.97;;;23.40;99.90;;;;;;5022743;28;20200;-60
2023/06/11 06:34:18;;;;;;;11.20;9.10;;;23.50;99.90;;;;;;5023268;28;20585;-61
2023/06/11 06:36:45;;;;;;;10.33;9.03;;;23.60;99.90;;;;;;5021233;28;20215;-63
2023/06/11 06:39:12;;;;;;;10.40;8.90;;;23.80;99.90;;;;;;5022751;28;20577;-61
2023/06/11 06:41:39;;;;;;;10.33;9.43;;;24.00;99.90;;;;;;5022466;28;20300;-61
2023/06/11 06:44:06;;;;;;;10.60;9.60;;;24.00;99.90;;;;;;5024014;28;20755;-62
2023/06/11 06:46:36;;;;;;;9.87;8.87;;;24.00;99.90;;;;;;5021702;28;20213;-61
2023/06/11 06:49:03;;;;;;;11.17;8.60;;;24.10;99.90;;;;;;5022889;28;20215;-61
2023/06/11 06:51:31;;;;;;;11.13;9.20;;;24.20;99.90;;;;;;5023065;28;20223;-61
2023/06/11 06:53:59;;;;;;;10.60;9.00;;;24.30;99.90;;;;;;5021838;28;20313;-61
2023/06/11 06:56:26;;;;;;;9.70;8.57;;;24.30;99.90;;;;;;5023514;28;20206;-61
2023/06/11 06:58:53;;;;;;;10.20;9.20;;;24.70;99.90;;;;;;5025718;28;20215;-61
2023/06/11 07:01:20;;;;;;;10.20;9.03;;;24.80;99.90;;;;;;5020565;28;20325;-61
2023/06/11 07:03:48;;;;;;;10.27;9.17;;;24.90;99.90;;;;;;5023400;28;20228;-61
2023/06/11 07:06:15;;;;;;;10.37;8.70;;;25.10;99.90;;;;;;5026184;28;20289;-61
2023/06/11 07:08:42;;;;;;;11.03;10.03;;;25.20;99.90;;;;;;5019757;28;20248;-60
2023/06/11 07:11:09;;;;;;;12.03;10.00;;;25.50;99.90;;;;;;5023459;28;20203;-61
2023/06/11 07:13:36;;;;;;;11.80;8.67;;;25.50;99.90;;;;;;5022969;28;20328;-61
2023/06/11 07:16:04;;;;;;;10.10;9.10;;;25.60;99.90;;;;;;5035267;28;20207;-64
2023/06/11 07:18:32;;;;;;;13.80;8.57;;;25.80;99.90;;;;;;5026962;28;20680;-61
2023/06/11 07:21:05;;;;;;;10.13;8.53;;;26.00;99.90;;;;;;5025227;28;20750;-61
2023/06/11 07:23:32;;;;;;;10.75;9.70;;;26.00;99.90;;;;;;5019913;28;20200;-61
2023/06/11 07:26:00;;;;;;;11.23;9.50;;;26.20;99.90;;;;;;5022644;28;20326;-62
2023/06/11 07:28:27;;;;;;;10.48;9.38;;;26.00;99.90;;;;;;5022361;28;20674;-61
2023/06/11 07:30:54;;;;;;;10.55;9.52;;;26.00;99.90;;;;;;5021779;28;20569;-61
2023/06/11 07:33:21;;;;;;;11.98;10.55;;;26.10;99.90;;;;;;5021180;28;20315;-61
2023/06/11 07:35:49;;;;;;;9.80;8.80;;;26.30;99.90;;;;;;5013150;28;20212;-61
2023/06/11 07:38:23;;;;;;;10.82;9.44;;;26.40;99.90;;;;;;4852559;28;10000543;-65
2023/06/11 07:40:50;;;;;;;12.43;9.70;;;26.30;99.90;;;;;;5006613;28;20425;-63
2023/06/11 07:43:17;;;;;;;9.82;8.93;;;26.60;99.90;;;;;;5012873;28;20503;-62
2023/06/11 07:45:44;;;;;;;9.57;8.67;;;26.60;99.90;;;;;;5021732;28;20204;-60
2023/06/11 07:48:11;;;;;;;9.17;8.13;;;27.30;99.90;;;;;;5019280;28;20612;-62
2023/06/11 07:50:38;;;;;;;7.72;7.00;;;28.00;99.90;;;;;;5019688;28;20197;-59
2023/06/11 07:53:04;;;;;;;9.63;7.97;;;28.30;99.90;;;;;;5012598;28;20197;-60
2023/06/11 07:55:31;;;;;;;7.88;7.18;;;29.30;99.90;;;;;;5019575;28;20213;-62
2023/06/11 07:57:58;;;;;;;8.25;7.35;;;29.40;99.90;;;;;;5018981;28;20286;-59
2023/06/11 08:00:26;;;;;;;10.05;7.78;;;28.90;99.90;;;;;;5002982;28;20216;-59
2023/06/11 08:02:52;;;;;;;8.55;7.43;;;28.90;99.90;;;;;;5016376;28;20209;-59
2023/06/11 08:05:20;;;;;;;8.10;7.03;;;29.60;99.90;;;;;;5019888;28;20223;-59
2023/06/11 08:07:48;;;;;;;7.97;7.15;;;30.10;99.90;;;;;;5021361;28;20275;-60
2023/06/11 08:10:15;;;;;;;7.73;6.97;;;30.20;99.90;;;;;;5017475;28;20205;-61
2023/06/11 08:12:42;;;;;;;7.33;6.73;;;30.20;99.90;;;;;;5018295;28;20475;-59
2023/06/11 08:15:10;;;;;;;6.95;6.20;;;30.30;99.90;;;;;;5019158;28;20204;-60
2023/06/11 08:17:37;;;;;;;7.60;6.90;;;30.30;99.90;;;;;;5020565;28;20208;-60
2023/06/11 08:20:07;;;;;;;7.47;6.72;;;30.80;99.90;;;;;;5032667;28;20204;-60
2023/06/11 08:22:34;;;;;;;8.05;6.43;;;30.30;99.90;;;;;;5018758;28;20204;-60
2023/06/11 08:25:02;;;;;;;7.20;6.60;;;30.90;99.90;;;;;;5016874;28;20225;-59
2023/06/11 08:27:29;;;;;;;7.57;6.88;;;30.80;99.90;;;;;;5018299;28;20308;-62
2023/06/11 08:29:56;;;;;;;7.15;6.47;;;30.20;99.90;;;;;;5021588;28;20203;-60
2023/06/11 08:32:25;;;;;;;6.90;6.30;;;30.50;99.90;;;;;;5024989;28;20225;-60
2023/06/11 08:34:52;;;;;;;7.22;6.63;;;30.90;99.90;;;;;;5025884;28;20262;-61
2023/06/11 08:37:20;;;;;;;6.55;6.03;;;31.00;99.90;;;;;;5027703;28;20826;-61
2023/06/11 08:39:46;;;;;;;7.22;6.15;;;31.60;99.90;;;;;;5023231;28;20525;-61
2023/06/11 08:42:14;;;;;;;7.90;7.10;;;31.80;99.90;;;;;;5017844;28;20209;-61
2023/06/11 08:44:41;;;;;;;9.05;6.80;;;32.40;99.90;;;;;;5025395;28;20212;-61
2023/06/11 08:47:11;;;;;;;8.25;6.13;;;32.10;99.90;;;;;;5027089;28;20215;-60
2023/06/11 08:49:44;;;;;;;9.50;6.82;;;31.80;99.90;;;;;;5025988;28;20205;-60
2023/06/11 08:52:13;;;;;;;8.70;7.20;;;31.70;99.90;;;;;;5020193;28;20204;-60
2023/06/11 08:54:40;;;;;;;7.50;6.60;;;31.90;99.90;;;;;;5019840;28;20200;-61
2023/06/11 08:57:08;;;;;;;6.75;6.03;;;32.20;99.90;;;;;;5024736;28;20200;-61
2023/06/11 08:59:38;;;;;;;6.82;6.22;;;31.80;99.90;;;;;;5017352;28;20216;-61
2023/06/11 09:02:05;;;;;;;7.38;6.68;;;31.40;99.90;;;;;;5016311;28;20262;-63
2023/06/11 09:04:33;;;;;;;7.47;6.32;;;31.40;99.90;;;;;;5000254;28;20811;-61
2023/06/11 09:07:00;;;;;;;7.95;6.85;;;31.20;99.90;;;;;;5014355;28;20196;-61
2023/06/11 09:09:28;;;;;;;6.20;5.68;;;31.30;99.90;;;;;;5021936;28;20959;-62
2023/06/11 09:11:55;;;;;;;6.57;5.97;;;31.60;99.90;;;;;;5027416;28;20291;-61
2023/06/11 09:14:22;;;;;;;7.38;6.65;;;32.50;99.90;;;;;;5024483;28;20204;-61
2023/06/11 09:16:49;;;;;;;6.57;6.00;;;31.80;99.90;;;;;;5026268;28;20635;-64
2023/06/11 09:19:20;;;;;;;8.15;6.20;;;32.10;99.90;;;;;;5024162;28;20213;-61
2023/06/11 09:21:52;;;;;;;5.93;5.20;;;32.40;99.90;;;;;;5016180;28;20200;-61
2023/06/11 09:24:20;;;;;;;8.65;6.78;;;32.50;99.90;;;;;;5014743;28;22089;-62
2023/06/11 09:26:55;;;;;;;6.40;5.80;;;32.90;99.90;;;;;;5025930;28;20201;-61
2023/06/11 09:29:23;;;;;;;6.32;5.57;;;32.30;99.90;;;;;;5026472;28;20188;-61
2023/06/11 09:32:08;;;;;;;8.40;5.63;;;31.40;99.90;;;;;;5024555;28;20189;-61
2023/06/11 09:34:56;;;;;;;6.03;5.47;;;31.50;99.90;;;;;;5022828;28;20215;-61
2023/06/11 09:37:23;;;;;;;6.38;5.45;;;31.30;99.90;;;;;;5022907;28;20251;-61
2023/06/11 09:39:50;;;;;;;6.32;5.72;;;31.30;99.90;;;;;;5023328;28;20201;-62
2023/06/11 09:42:26;;;;;;;6.20;5.60;;;31.90;99.90;;;;;;5027731;28;20212;-63
2023/06/11 09:45:00;;;;;;;6.70;5.55;;;31.90;99.90;;;;;;5025243;28;20220;-61
2023/06/11 09:47:30;;;;;;;7.20;6.03;;;31.20;99.90;;;;;;5030136;28;20660;-61
2023/06/11 09:49:58;;;;;;;6.40;5.80;;;31.30;99.90;;;;;;5031586;28;20251;-61
2023/06/11 09:52:28;;;;;;;5.68;5.18;;;32.00;99.90;;;;;;5031840;28;20293;-61
2023/06/11 09:54:55;;;;;;;5.93;5.43;;;32.10;99.90;;;;;;5029362;28;20211;-61
2023/06/11 09:57:22;;;;;;;5.60;5.10;;;32.30;99.90;;;;;;5031653;28;20215;-61
2023/06/11 09:59:50;;;;;;;5.35;4.85;;;32.20;99.90;;;;;;5027443;28;20201;-61
2023/06/11 10:02:17;;;;;;;6.18;4.88;;;32.70;99.90;;;;;;5030217;28;20212;-61
2023/06/11 10:04:45;;;;;;;5.65;5.15;;;32.60;99.90;;;;;;5028430;28;20224;-60
2023/06/11 10:07:13;;;;;;;6.75;6.13;;;31.90;99.90;;;;;;5023944;28;20250;-61
2023/06/11 10:09:41;;;;;;;7.40;5.13;;;31.30;99.90;;;;;;5021896;28;20232;-61
2023/06/11 10:12:10;;;;;;;5.85;5.32;;;31.70;99.90;;;;;;5022004;28;20330;-60
2023/06/11 10:14:39;;;;;;;6.30;5.70;;;31.80;99.90;;;;;;5021733;28;20205;-61
2023/06/11 10:17:10;;;;;;;5.63;5.05;;;31.90;99.90;;;;;;5022241;28;20621;-60
2023/06/11 10:19:39;;;;;;;5.80;5.20;;;32.10;99.90;;;;;;5022233;28;20200;-60
2023/06/11 10:22:06;;;;;;;5.75;5.10;;;32.00;99.90;;;;;;5020428;28;20216;-61
2023/06/11 10:24:33;;;;;;;5.47;4.97;;;32.10;99.90;;;;;;5028762;28;20647;-61
2023/06/11 10:27:12;;;;;;;6.45;5.43;;;31.70;99.90;;;;;;5019766;28;20203;-64
2023/06/11 10:29:49;;;;;;;5.90;5.05;;;31.70;99.90;;;;;;5020873;28;20608;-61
2023/06/11 10:32:21;;;;;;;5.25;4.75;;;31.90;99.90;;;;;;5028484;28;20196;-60
2023/06/11 10:34:57;;;;;;;6.05;4.60;;;32.00;99.90;;;;;;5029088;28;20231;-61
2023/06/11 10:37:33;;;;;;;5.45;4.95;;;31.90;99.90;;;;;;5028834;28;20208;-61
2023/06/11 10:40:00;;;;;;;6.82;5.00;;;31.70;99.90;;;;;;5026982;28;20242;-60
2023/06/11 10:42:38;;;;;;;5.53;5.13;;;31.40;99.90;;;;;;5025826;28;20814;-61
2023/06/11 10:45:14;;;;;;;5.10;4.70;;;31.30;99.90;;;;;;5025120;28;20220;-59
2023/06/11 10:47:45;;;;;;;5.10;4.70;;;31.30;99.90;;;;;;5024392;28;20203;-63
2023/06/11 10:50:30;;;;;;;5.45;4.80;;;31.90;99.90;;;;;;5025590;28;20197;-59
2023/06/11 10:53:06;;;;;;;5.82;5.15;;;32.30;99.90;;;;;;5023733;28;20262;-59
2023/06/11 10:55:34;;;;;;;5.68;4.75;;;32.30;99.90;;;;;;5022593;28;20218;-60
2023/06/11 10:58:02;;;;;;;5.18;4.40;;;32.00;99.90;;;;;;5016873;28;20267;-61
2023/06/11 11:00:32;;;;;;;4.68;4.32;;;31.60;99.90;;;;;;5016585;28;20224;-60
2023/06/11 11:03:03;;;;;;;7.13;4.80;;;32.20;99.90;;;;;;5020662;28;20664;-60
2023/06/11 11:05:31;;;;;;;4.68;4.28;;;31.80;99.90;;;;;;5019908;28;20359;-60
2023/06/11 11:08:01;;;;;;;5.65;5.15;;;31.90;99.90;;;;;;5017460;28;20247;-60
2023/06/11 11:10:28;;;;;;;5.15;4.57;;;31.70;99.90;;;;;;5022850;28;20722;-60
2023/06/11 11:12:56;;;;;;;5.95;4.65;;;32.20;99.90;;;;;;5014837;28;20653;-60
2023/06/11 11:15:23;;;;;;;5.85;5.18;;;32.10;99.90;;;;;;5021410;28;20209;-60
2023/06/11 11:17:50;;;;;;;5.88;4.72;;;32.90;99.90;;;;;;5004244;28;20209;-60
2023/06/11 11:20:21;;;;;;;5.78;4.70;;;32.40;99.90;;;;;;5023924;28;20205;-60
2023/06/11 11:22:54;;;;;;;4.97;4.57;;;32.10;99.90;;;;;;5016660;28;20212;-61
2023/06/11 11:25:24;;;;;;;5.00;4.60;;;32.50;99.90;;;;;;5018770;28;20589;-61
2023/06/11 11:27:51;;;;;;;4.65;4.20;;;32.00;99.90;;;;;;5031409;28;20209;-61
2023/06/11 11:30:18;;;;;;;5.47;4.32;;;32.60;99.90;;;;;;5021558;28;20247;-60
2023/06/11 11:32:45;;;;;;;4.93;4.40;;;32.80;99.90;;;;;;5003051;28;20224;-60
2023/06/11 11:35:16;;;;;;;4.43;4.03;;;32.90;99.90;;;;;;5022716;28;20232;-63
2023/06/11 11:37:50;;;;;;;4.18;3.70;;;32.90;99.90;;;;;;5022478;28;20254;-61
2023/06/11 11:40:19;;;;;;;4.25;3.85;;;33.10;99.90;;;;;;5016403;28;20641;-61
2023/06/11 11:42:57;;;;;;;4.82;4.35;;;33.40;99.90;;;;;;5024207;28;20236;-61
2023/06/11 11:45:32;;;;;;;4.47;4.07;;;33.10;99.90;;;;;;5022421;28;20339;-61
2023/06/11 11:48:00;;;;;;;4.68;3.70;;;33.20;99.90;;;;;;5020211;28;20200;-61
2023/06/11 11:50:31;;;;;;;4.20;3.80;;;33.30;99.90;;;;;;5024840;28;20243;-61
2023/06/11 11:53:06;;;;;;;4.40;3.85;;;32.60;99.90;;;;;;5023708;28;20227;-61
2023/06/11 11:55:36;;;;;;;4.47;3.58;;;33.00;99.90;;;;;;5021477;28;20605;-61
2023/06/11 11:58:18;;;;;;;4.55;3.85;;;33.40;99.90;;;;;;5022760;28;20201;-60
2023/06/11 12:00:46;;;;;;;4.20;3.80;;;33.60;99.90;;;;;;5020078;28;20603;-61
2023/06/11 12:03:16;;;;;;;3.90;3.50;;;33.00;99.90;;;;;;5019447;28;20213;-60
2023/06/11 12:05:54;;;;;;;4.22;3.47;;;32.90;99.90;;;;;;5020247;28;20208;-61
2023/06/11 12:08:21;;;;;;;4.28;3.88;;;33.50;99.90;;;;;;5017322;28;20233;-60
2023/06/11 12:10:48;;;;;;;3.40;3.10;;;34.20;99.90;;;;;;5021017;28;21121;-60
2023/06/11 12:13:15;;;;;;;3.95;3.55;;;34.70;99.90;;;;;;5017767;28;20212;-61
2023/06/11 12:15:42;;;;;;;5.82;3.55;;;33.40;99.90;;;;;;5021740;28;20231;-61
2023/06/11 12:18:09;;;;;;;4.13;3.55;;;33.50;99.90;;;;;;5015559;28;20228;-60
2023/06/11 12:20:36;;;;;;;4.20;3.78;;;34.30;99.90;;;;;;5015397;28;20207;-60
2023/06/11 12:23:03;;;;;;;7.20;3.42;;;34.80;99.90;;;;;;5018910;28;20617;-60
2023/06/11 12:25:30;;;;;;;9.45;3.75;;;33.80;99.90;;;;;;5013588;28;20217;-61
2023/06/11 12:28:01;;;;;;;3.25;3.00;;;33.40;99.90;;;;;;5019576;28;20204;-61
2023/06/11 12:30:32;;;;;;;4.85;3.25;;;33.30;99.90;;;;;;5021152;28;21301;-61
2023/06/11 12:32:59;;;;;;;3.55;3.25;;;33.90;99.90;;;;;;5018418;28;20260;-61
2023/06/11 12:35:29;;;;;;;4.68;3.13;;;34.80;99.90;;;;;;5021952;28;20200;-60
2023/06/11 12:37:56;;;;;;;4.65;3.47;;;34.30;99.90;;;;;;5021817;28;20212;-60
2023/06/11 12:40:24;;;;;;;3.63;3.30;;;33.80;99.90;;;;;;5021223;28;20289;-61
2023/06/11 12:42:56;;;;;;;3.75;3.28;;;34.10;99.90;;;;;;5019922;28;20541;-60
2023/06/11 12:45:26;;;;;;;3.67;3.38;;;34.40;99.90;;;;;;5016072;28;20247;-60
2023/06/11 12:47:53;;;;;;;3.80;3.40;;;34.00;99.90;;;;;;5019957;28;20209;-60
2023/06/11 12:50:20;;;;;;;5.10;3.50;;;33.70;99.90;;;;;;5020909;28;20333;-60